Time;durP1;ratioP1;P1;durP2;ratioP2;P2;SDS_P1;SDS_P2;PMS_P1;PMS_P2;Temp;Humidity;BMP_temperature;BMP_pressure;BME280_temperature;BME280_humidity;BME280_pressure;Samples;Min_cycle;Max_cycle;Signal;HPM_P1;HPM_P2
2021/06/15 04:00:50;;;;;;;17.33;12.00;;;16.80;99.90;;;;;;5763206;23;20921;-68
2021/06/15 04:03:17;;;;;;;15.70;11.80;;;16.80;99.90;;;;;;4935320;29;20485;-68
2021/06/15 04:05:46;;;;;;;14.90;12.43;;;16.80;99.90;;;;;;4934806;29;20824;-68
2021/06/15 04:08:15;;;;;;;13.00;11.70;;;16.80;99.90;;;;;;4936062;29;20930;-68
2021/06/15 04:10:44;;;;;;;13.60;12.30;;;16.90;99.90;;;;;;4927694;29;20509;-69
2021/06/15 04:13:12;;;;;;;17.23;11.63;;;16.90;99.90;;;;;;4917529;29;20475;-68
2021/06/15 04:15:39;;;;;;;14.33;11.90;;;16.90;99.90;;;;;;4918011;29;20470;-68
2021/06/15 04:18:08;;;;;;;12.37;11.37;;;16.90;99.90;;;;;;4917175;29;20470;-68
2021/06/15 04:20:39;;;;;;;13.17;11.40;;;16.90;99.90;;;;;;4916189;29;20493;-67
2021/06/15 04:23:08;;;;;;;18.20;10.40;;;16.90;99.90;;;;;;4917460;29;20478;-67
2021/06/15 04:25:40;;;;;;;14.47;11.40;;;16.90;99.90;;;;;;4917199;29;20490;-68
2021/06/15 04:28:07;;;;;;;12.20;10.90;;;17.00;99.90;;;;;;4918254;29;20475;-67
2021/06/15 04:30:35;;;;;;;11.50;10.60;;;17.00;99.90;;;;;;4916580;29;20583;-67
2021/06/15 04:33:06;;;;;;;13.03;10.37;;;17.00;99.90;;;;;;4916389;29;20533;-68
2021/06/15 04:35:37;;;;;;;12.17;10.00;;;17.10;99.90;;;;;;4915817;29;20509;-68
2021/06/15 04:38:09;;;;;;;18.07;11.07;;;17.10;99.90;;;;;;4919834;29;20494;-68
2021/06/15 04:40:37;;;;;;;12.80;10.13;;;17.10;99.90;;;;;;4918964;29;20990;-68
2021/06/15 04:43:20;;;;;;;10.57;9.47;;;17.10;99.90;;;;;;4918663;29;20819;-68
2021/06/15 04:45:47;;;;;;;12.47;10.37;;;17.20;99.90;;;;;;4917522;29;20470;-68
2021/06/15 04:48:29;;;;;;;10.73;9.10;;;17.20;99.90;;;;;;4915914;29;21056;-69
2021/06/15 04:51:01;;;;;;;10.47;9.37;;;17.20;99.90;;;;;;4915186;29;20511;-68
2021/06/15 04:53:30;;;;;;;11.93;8.70;;;17.20;99.90;;;;;;4915863;29;20577;-68
2021/06/15 04:55:59;;;;;;;10.90;9.83;;;17.20;99.90;;;;;;4915820;29;20466;-68
2021/06/15 04:58:26;;;;;;;11.30;10.40;;;17.20;99.90;;;;;;4915765;29;20482;-68
2021/06/15 05:00:53;;;;;;;10.10;9.20;;;17.20;99.90;;;;;;4915829;29;20501;-68
2021/06/15 05:03:21;;;;;;;9.83;8.93;;;17.10;99.90;;;;;;4915724;29;20501;-68
2021/06/15 05:05:49;;;;;;;10.23;9.23;;;17.00;99.90;;;;;;4919121;29;20481;-68
2021/06/15 05:08:22;;;;;;;10.83;9.70;;;17.00;99.90;;;;;;4919865;29;20975;-68
2021/06/15 05:10:51;;;;;;;11.00;9.90;;;17.00;99.90;;;;;;4919664;29;20490;-67
2021/06/15 05:13:21;;;;;;;9.77;8.87;;;16.90;99.90;;;;;;4919639;29;20792;-68
2021/06/15 05:15:48;;;;;;;12.60;8.80;;;17.00;99.90;;;;;;4919470;29;20477;-68
2021/06/15 05:18:15;;;;;;;13.63;8.70;;;16.90;99.90;;;;;;4919519;29;20478;-68
2021/06/15 05:20:42;;;;;;;10.40;8.87;;;16.90;99.90;;;;;;4918700;29;20505;-68
2021/06/15 05:23:12;;;;;;;16.00;9.20;;;17.00;99.90;;;;;;4919406;29;20493;-68
2021/06/15 05:25:41;;;;;;;9.30;7.67;;;17.00;99.90;;;;;;4919629;29;20470;-67
2021/06/15 05:28:08;;;;;;;9.00;7.13;;;16.90;99.90;;;;;;4919429;29;20919;-68
2021/06/15 05:30:35;;;;;;;11.90;6.70;;;16.80;99.90;;;;;;4919345;29;20498;-68
2021/06/15 05:33:01;;;;;;;7.07;6.40;;;16.80;99.90;;;;;;4919318;29;20470;-68
2021/06/15 05:35:28;;;;;;;8.47;6.27;;;16.80;99.90;;;;;;4918437;29;20678;-68
2021/06/15 05:37:55;;;;;;;7.43;6.80;;;16.80;99.90;;;;;;4919358;29;20466;-68
2021/06/15 05:40:22;;;;;;;7.80;7.00;;;16.90;99.90;;;;;;4918828;29;20473;-68
2021/06/15 05:42:50;;;;;;;7.37;5.90;;;16.90;99.90;;;;;;4919523;29;20962;-68
2021/06/15 05:45:17;;;;;;;6.90;5.90;;;16.90;99.90;;;;;;4919578;29;20471;-68
2021/06/15 05:47:44;;;;;;;7.53;5.60;;;17.00;99.90;;;;;;4919111;29;20466;-67
2021/06/15 05:50:13;;;;;;;6.10;5.00;;;17.00;99.90;;;;;;4918323;29;20516;-68
2021/06/15 05:52:40;;;;;;;8.10;5.60;;;17.10;99.90;;;;;;4918925;29;20477;-68
2021/06/15 05:55:08;;;;;;;6.13;5.37;;;17.10;99.90;;;;;;4918972;29;20478;-68
2021/06/15 05:57:35;;;;;;;11.00;5.33;;;17.10;99.90;;;;;;4919243;29;20470;-68
2021/06/15 06:00:03;;;;;;;6.00;5.40;;;17.20;99.90;;;;;;4918985;29;20466;-68
2021/06/15 06:02:30;;;;;;;8.73;6.17;;;17.10;99.90;;;;;;4918495;29;20501;-67
2021/06/15 06:08:04;;;;;;;9.10;5.40;;;17.00;99.90;;;;;;4918838;29;20509;-68
2021/06/15 06:08:06;;;;;;;5.10;4.70;;;17.10;99.90;;;;;;4918868;29;20545;-68
2021/06/15 06:10:33;;;;;;;5.47;5.17;;;17.30;99.90;;;;;;4919064;29;20489;-68
2021/06/15 06:13:00;;;;;;;8.10;5.37;;;17.40;99.90;;;;;;4918706;29;20832;-68
2021/06/15 06:15:28;;;;;;;6.57;5.97;;;17.50;99.90;;;;;;4918182;29;20513;-68
2021/06/15 06:17:55;;;;;;;4.67;4.37;;;17.60;99.90;;;;;;4918646;29;20833;-68
2021/06/15 06:20:21;;;;;;;5.47;4.97;;;17.60;99.90;;;;;;4917772;29;20479;-68
2021/06/15 06:22:48;;;;;;;7.17;5.00;;;17.70;99.90;;;;;;4918423;29;20478;-68
2021/06/15 06:25:16;;;;;;;6.97;4.70;;;17.70;99.90;;;;;;4918211;29;20506;-69
2021/06/15 06:27:43;;;;;;;5.87;4.80;;;17.80;99.90;;;;;;4918684;29;20469;-70
2021/06/15 06:30:11;;;;;;;4.13;3.93;;;17.70;99.90;;;;;;4918426;29;20466;-69
2021/06/15 06:32:39;;;;;;;5.83;4.07;;;17.70;99.90;;;;;;4918283;29;20471;-70
2021/06/15 06:35:07;;;;;;;5.83;4.20;;;17.80;99.90;;;;;;4917704;29;20466;-69
2021/06/15 06:37:34;;;;;;;5.67;4.23;;;17.90;99.90;;;;;;4918369;29;20482;-70
2021/06/15 06:40:01;;;;;;;7.83;4.57;;;17.90;99.90;;;;;;4918340;29;20845;-69
2021/06/15 06:42:28;;;;;;;5.80;3.87;;;18.00;99.90;;;;;;4918456;29;20487;-70
2021/06/15 06:44:55;;;;;;;7.97;3.90;;;18.00;99.90;;;;;;4918115;29;20870;-70
2021/06/15 06:47:21;;;;;;;5.40;3.60;;;18.00;99.90;;;;;;4917990;29;20473;-68
2021/06/15 06:49:49;;;;;;;6.90;4.10;;;18.00;99.90;;;;;;4918117;29;20486;-68
2021/06/15 06:52:16;;;;;;;4.80;3.40;;;18.20;99.90;;;;;;4916854;29;20563;-68
2021/06/15 06:54:43;;;;;;;6.37;4.00;;;18.40;99.90;;;;;;4918385;29;20469;-68
2021/06/15 06:57:10;;;;;;;5.63;3.50;;;18.40;99.90;;;;;;4917819;29;20471;-68
2021/06/15 06:59:37;;;;;;;3.20;2.90;;;18.50;99.90;;;;;;4918106;29;20526;-70
2021/06/15 07:02:04;;;;;;;5.37;3.57;;;18.50;99.90;;;;;;4917190;29;20513;-69
2021/06/15 07:04:30;;;;;;;3.47;3.07;;;18.30;99.90;;;;;;4918104;29;20490;-70
2021/06/15 07:07:00;;;;;;;4.97;3.33;;;18.30;99.90;;;;;;4916820;29;20925;-70
2021/06/15 07:09:26;;;;;;;6.50;3.33;;;18.40;99.90;;;;;;4917812;29;20908;-69
2021/06/15 07:11:53;;;;;;;6.50;3.70;;;18.40;99.90;;;;;;4934651;29;20521;-69
2021/06/15 07:14:47;;;;;;;7.23;4.30;;;18.40;99.90;;;;;;4936696;29;20462;-69
2021/06/15 07:17:14;;;;;;;3.40;3.10;;;18.40;99.90;;;;;;4935960;29;20458;-69
2021/06/15 07:19:40;;;;;;;4.33;3.03;;;18.50;99.90;;;;;;4936506;29;20942;-69
2021/06/15 07:22:09;;;;;;;3.10;2.80;;;18.50;99.90;;;;;;4936052;29;20477;-69
2021/06/15 07:24:37;;;;;;;3.20;2.87;;;18.50;99.90;;;;;;4936258;28;20490;-70
2021/06/15 07:27:04;;;;;;;2.93;2.70;;;18.50;99.90;;;;;;4935673;29;20470;-70
2021/06/15 07:29:31;;;;;;;3.43;3.00;;;18.50;99.90;;;;;;4936773;29;20469;-69
2021/06/15 07:31:58;;;;;;;2.57;2.47;;;18.50;99.90;;;;;;4936409;29;20949;-69
2021/06/15 07:34:25;;;;;;;3.57;2.60;;;18.60;99.90;;;;;;4936116;28;20483;-70
2021/06/15 07:36:51;;;;;;;2.40;2.20;;;18.80;99.90;;;;;;4935080;29;20469;-70
2021/06/15 07:39:20;;;;;;;2.43;2.10;;;19.10;99.90;;;;;;4936250;29;20469;-70
2021/06/15 07:41:48;;;;;;;4.80;2.30;;;19.30;99.90;;;;;;4936234;29;20486;-68
2021/06/15 07:44:15;;;;;;;4.60;2.60;;;19.50;99.90;;;;;;4936925;28;20838;-70
2021/06/15 07:46:42;;;;;;;5.73;2.20;;;19.40;99.90;;;;;;4938162;29;20477;-68
2021/06/15 07:49:09;;;;;;;2.00;1.90;;;19.00;99.90;;;;;;4938511;29;20572;-68
2021/06/15 07:51:36;;;;;;;4.20;1.90;;;19.00;99.90;;;;;;4935781;29;20490;-68
2021/06/15 07:54:03;;;;;;;2.00;1.77;;;19.30;99.90;;;;;;4936749;29;20466;-68
2021/06/15 07:56:31;;;;;;;2.57;2.00;;;19.50;99.90;;;;;;4936638;29;20476;-68
2021/06/15 07:58:57;;;;;;;1.57;1.50;;;19.80;99.90;;;;;;4936238;29;20482;-70
2021/06/15 08:01:24;;;;;;;4.53;1.80;;;20.20;99.90;;;;;;4916617;29;20486;-69
2021/06/15 08:03:51;;;;;;;7.57;1.70;;;20.70;99.90;;;;;;4916593;29;20494;-69
2021/06/15 08:06:18;;;;;;;2.73;1.77;;;20.90;99.90;;;;;;4915770;29;20811;-68
2021/06/15 08:08:44;;;;;;;2.83;2.10;;;20.80;99.90;;;;;;4917025;29;20896;-68
2021/06/15 08:11:11;;;;;;;3.13;1.93;;;20.40;99.90;;;;;;4916812;29;20535;-68
2021/06/15 08:13:39;;;;;;;2.47;1.90;;;20.40;99.90;;;;;;4916585;29;20463;-67
2021/06/15 08:16:06;;;;;;;2.73;1.80;;;20.40;99.90;;;;;;4916318;29;20473;-68
2021/06/15 08:18:32;;;;;;;1.47;1.13;;;20.50;99.90;;;;;;4916710;29;20474;-69
2021/06/15 08:21:00;;;;;;;2.53;1.63;;;20.80;99.90;;;;;;4915660;29;20498;-69
2021/06/15 08:23:28;;;;;;;0.93;0.93;;;21.00;99.90;;;;;;4916598;29;20466;-69
2021/06/15 08:25:55;;;;;;;1.27;1.17;;;21.20;99.90;;;;;;4916816;29;20491;-69
2021/06/15 08:28:23;;;;;;;1.57;1.57;;;21.40;99.90;;;;;;4916472;29;20474;-68
2021/06/15 08:30:52;;;;;;;1.73;1.00;;;21.20;99.90;;;;;;4916270;29;20501;-67
2021/06/15 08:33:18;;;;;;;1.37;1.07;;;21.10;99.90;;;;;;4916176;29;20835;-68
2021/06/15 08:35:45;;;;;;;1.07;1.07;;;21.20;99.90;;;;;;4915414;29;20462;-68
2021/06/15 08:38:12;;;;;;;2.30;1.53;;;21.40;99.90;;;;;;4928606;29;20497;-68
2021/06/15 08:40:39;;;;;;;1.27;1.00;;;21.80;99.90;;;;;;4935105;29;20492;-69
2021/06/15 08:43:06;;;;;;;6.10;1.53;;;22.10;99.90;;;;;;4934896;29;20986;-68
2021/06/15 08:45:32;;;;;;;1.70;1.60;;;21.90;99.90;;;;;;4934980;29;20489;-68
2021/06/15 08:48:00;;;;;;;1.20;1.10;;;21.60;99.90;;;;;;4935378;29;20500;-69
2021/06/15 08:50:28;;;;;;;1.90;1.80;;;21.40;99.90;;;;;;4934112;29;21009;-69
2021/06/15 08:52:55;;;;;;;2.13;1.97;;;21.30;99.90;;;;;;4935398;29;20493;-69
2021/06/15 08:55:25;;;;;;;2.40;1.40;;;21.40;99.90;;;;;;4937458;28;20558;-69
2021/06/15 08:58:04;;;;;;;2.13;1.27;;;21.70;99.90;;;;;;4935316;29;20473;-69
2021/06/15 09:00:31;;;;;;;3.70;1.40;;;22.20;99.90;;;;;;4934917;29;20489;-69
2021/06/15 09:02:59;;;;;;;2.10;1.30;;;22.40;99.90;;;;;;4935110;29;20477;-69
2021/06/15 09:05:26;;;;;;;1.40;1.30;;;22.50;99.90;;;;;;4934596;29;20959;-69
2021/06/15 09:08:08;;;;;;;4.87;1.37;;;22.70;99.90;;;;;;4935437;28;20477;-69
2021/06/15 09:10:38;;;;;;;3.20;1.57;;;22.50;99.90;;;;;;4934921;29;20486;-69
2021/06/15 09:13:05;;;;;;;1.37;1.27;;;22.40;99.90;;;;;;4935134;29;20469;-69
2021/06/15 09:15:33;;;;;;;1.30;1.20;;;22.40;99.90;;;;;;4935196;29;20462;-69
2021/06/15 09:18:01;;;;;;;1.43;1.23;;;22.60;99.90;;;;;;4935324;29;20469;-69
2021/06/15 09:20:31;;;;;;;1.43;1.37;;;22.60;99.90;;;;;;4934676;28;20493;-69
2021/06/15 09:23:04;;;;;;;1.57;1.40;;;22.80;99.80;;;;;;4935870;29;20469;-69
2021/06/15 09:25:31;;;;;;;1.10;0.97;;;23.10;99.00;;;;;;4934434;29;20497;-69
2021/06/15 09:28:00;;;;;;;1.27;1.17;;;22.70;97.70;;;;;;4917181;29;20473;-69
2021/06/15 09:30:29;;;;;;;1.37;1.03;;;22.70;97.80;;;;;;4916062;29;20487;-69
2021/06/15 09:32:56;;;;;;;1.37;1.27;;;22.80;97.20;;;;;;4916011;29;20551;-69
2021/06/15 09:35:28;;;;;;;2.03;1.23;;;22.80;98.30;;;;;;4915049;29;20462;-69
2021/06/15 09:37:56;;;;;;;3.40;1.73;;;22.90;98.20;;;;;;4916124;29;20970;-69
2021/06/15 09:40:26;;;;;;;3.80;1.73;;;22.90;98.10;;;;;;4916063;29;20885;-69
2021/06/15 09:42:56;;;;;;;2.03;1.60;;;22.90;97.50;;;;;;4916143;29;20467;-70
2021/06/15 09:45:25;;;;;;;1.47;1.33;;;22.80;98.20;;;;;;4915637;29;21032;-68
2021/06/15 09:47:53;;;;;;;2.57;1.60;;;23.00;98.40;;;;;;4915846;29;20471;-69
2021/06/15 09:50:22;;;;;;;1.97;1.87;;;23.10;96.70;;;;;;4916080;29;20835;-68
2021/06/15 09:52:51;;;;;;;1.50;1.40;;;23.00;96.80;;;;;;4919604;29;20983;-69
2021/06/15 09:55:21;;;;;;;2.57;1.27;;;22.90;96.90;;;;;;4919359;29;21006;-69
2021/06/15 09:57:51;;;;;;;2.47;1.57;;;23.10;96.50;;;;;;4919785;29;20466;-70
2021/06/15 10:00:19;;;;;;;3.20;1.60;;;22.80;97.30;;;;;;4924171;29;20497;-68
2021/06/15 10:02:52;;;;;;;1.60;1.33;;;22.80;97.30;;;;;;4938011;29;20831;-69
2021/06/15 10:05:28;;;;;;;1.60;1.50;;;22.80;97.80;;;;;;4937106;29;20495;-67
2021/06/15 10:07:58;;;;;;;1.70;1.60;;;23.00;97.80;;;;;;4937850;29;20484;-69
2021/06/15 10:10:28;;;;;;;5.63;2.07;;;23.10;98.20;;;;;;4937604;29;20472;-68
2021/06/15 10:12:55;;;;;;;3.33;1.80;;;23.10;97.30;;;;;;4937807;29;20553;-68
2021/06/15 10:15:23;;;;;;;2.63;2.30;;;23.00;96.90;;;;;;4937650;29;20461;-67
2021/06/15 10:17:50;;;;;;;2.20;2.10;;;22.40;96.90;;;;;;4938020;29;20458;-69
2021/06/15 10:20:20;;;;;;;1.90;1.80;;;22.30;98.70;;;;;;4936800;29;20462;-70
2021/06/15 10:22:48;;;;;;;3.60;1.90;;;22.50;98.60;;;;;;4937647;29;20466;-68
2021/06/15 10:25:19;;;;;;;2.20;1.80;;;22.60;97.70;;;;;;4937185;29;20520;-67
2021/06/15 10:27:47;;;;;;;2.43;1.67;;;22.50;98.10;;;;;;4937738;29;20469;-68
2021/06/15 10:30:15;;;;;;;2.13;1.83;;;22.80;98.20;;;;;;4937348;29;20466;-68
2021/06/15 10:32:53;;;;;;;7.47;1.87;;;23.00;97.60;;;;;;4937165;29;20474;-68
2021/06/15 10:35:37;;;;;;;1.73;1.63;;;23.10;98.20;;;;;;4936349;29;20470;-67
2021/06/15 10:38:04;;;;;;;2.90;1.90;;;23.30;98.10;;;;;;4937137;29;20465;-67
2021/06/15 10:40:41;;;;;;;1.93;1.80;;;23.10;97.50;;;;;;4936873;28;20489;-67
2021/06/15 10:43:22;;;;;;;1.90;1.60;;;22.70;97.60;;;;;;4937079;29;20469;-66
2021/06/15 10:45:52;;;;;;;2.33;2.10;;;22.40;98.20;;;;;;4936841;29;20499;-67
2021/06/15 10:48:43;;;;;;;2.00;1.90;;;22.30;97.40;;;;;;4936806;29;20560;-68
2021/06/15 10:51:28;;;;;;;3.10;1.93;;;22.00;97.90;;;;;;4915346;29;20494;-67
2021/06/15 10:54:02;;;;;;;3.03;1.70;;;22.20;97.50;;;;;;4917986;29;20465;-67
2021/06/15 10:56:33;;;;;;;1.90;1.80;;;22.40;97.80;;;;;;4917900;29;20463;-67
2021/06/15 10:59:06;;;;;;;2.57;2.00;;;22.40;97.40;;;;;;4917468;29;20476;-67
2021/06/15 11:01:36;;;;;;;2.40;1.30;;;22.50;97.00;;;;;;4916290;29;20991;-67
2021/06/15 11:04:05;;;;;;;4.13;1.83;;;22.60;96.50;;;;;;4917505;29;20477;-67
2021/06/15 11:06:46;;;;;;;3.47;1.70;;;22.70;97.40;;;;;;4916620;29;20490;-67
2021/06/15 11:09:29;;;;;;;1.93;1.70;;;22.90;96.70;;;;;;4917318;29;20467;-67
2021/06/15 11:12:18;;;;;;;1.83;1.73;;;22.70;97.60;;;;;;4917565;29;20497;-67
2021/06/15 11:15:10;;;;;;;2.00;1.90;;;22.70;98.40;;;;;;4917854;29;20459;-69
2021/06/15 11:17:52;;;;;;;2.17;1.70;;;22.50;98.10;;;;;;4917924;29;20470;-69
2021/06/15 11:20:27;;;;;;;2.00;1.80;;;22.50;97.70;;;;;;4917471;29;20825;-68
2021/06/15 11:23:18;;;;;;;2.13;2.03;;;22.40;97.10;;;;;;4918301;29;20468;-70
2021/06/15 11:25:51;;;;;;;2.83;1.90;;;22.20;97.60;;;;;;4917558;29;20557;-70
2021/06/15 11:28:53;;;;;;;3.13;1.70;;;22.20;98.10;;;;;;4918625;29;20923;-69
2021/06/15 11:31:33;;;;;;;1.90;1.77;;;22.30;97.30;;;;;;4919026;29;20879;-69
2021/06/15 11:34:19;;;;;;;2.17;2.07;;;22.30;96.50;;;;;;4919720;29;20529;-69
2021/06/15 11:36:54;;;;;;;1.97;1.87;;;22.50;97.60;;;;;;4918106;29;20557;-68
2021/06/15 11:39:37;;;;;;;1.93;1.70;;;22.70;97.20;;;;;;4919220;29;20836;-70
2021/06/15 11:42:18;;;;;;;2.30;2.10;;;22.90;96.80;;;;;;4917857;29;20570;-69
2021/06/15 11:44:54;;;;;;;3.00;1.77;;;22.90;95.70;;;;;;4918277;29;20797;-69
2021/06/15 11:47:47;;;;;;;2.40;2.30;;;22.80;96.90;;;;;;4917707;29;20465;-69
2021/06/15 11:50:25;;;;;;;3.40;1.90;;;22.60;96.10;;;;;;4916745;29;20935;-69
2021/06/15 11:52:58;;;;;;;9.00;2.33;;;22.60;96.40;;;;;;4917815;29;21010;-69
2021/06/15 11:55:32;;;;;;;3.07;2.77;;;22.20;96.30;;;;;;4917711;29;20462;-70
2021/06/15 11:58:05;;;;;;;2.77;2.47;;;22.40;96.60;;;;;;4917739;29;20473;-70
2021/06/15 12:00:36;;;;;;;6.13;2.67;;;22.50;96.90;;;;;;4924423;28;20498;-70
2021/06/15 12:03:08;;;;;;;4.87;2.13;;;22.70;96.10;;;;;;4936571;29;20564;-68
2021/06/15 12:05:36;;;;;;;2.03;1.80;;;22.80;95.20;;;;;;4935457;29;20512;-68
2021/06/15 12:08:03;;;;;;;2.33;2.13;;;22.80;95.20;;;;;;4936356;29;21091;-68
2021/06/15 12:10:30;;;;;;;2.13;1.90;;;23.00;96.00;;;;;;4935762;29;20497;-68
2021/06/15 12:13:03;;;;;;;1.73;1.63;;;23.30;95.40;;;;;;4935900;29;20469;-68
2021/06/15 12:15:41;;;;;;;3.13;2.60;;;23.40;95.50;;;;;;4935632;29;20970;-68
2021/06/15 12:18:11;;;;;;;2.90;1.87;;;23.60;94.90;;;;;;4936034;29;20466;-68
2021/06/15 12:20:39;;;;;;;1.93;1.83;;;23.50;94.80;;;;;;4934909;29;20493;-68
2021/06/15 12:23:27;;;;;;;3.17;2.00;;;23.40;95.40;;;;;;4936146;29;20476;-68
2021/06/15 12:25:55;;;;;;;2.70;2.50;;;23.40;95.20;;;;;;4935470;29;20496;-68
2021/06/15 12:28:23;;;;;;;2.73;2.63;;;23.40;94.80;;;;;;4935780;29;20481;-68
2021/06/15 12:31:04;;;;;;;2.30;2.20;;;23.30;94.90;;;;;;4935387;29;20489;-68
2021/06/15 12:33:31;;;;;;;3.20;3.00;;;23.30;95.10;;;;;;4935812;29;20973;-68
2021/06/15 12:35:59;;;;;;;3.40;2.17;;;23.30;95.30;;;;;;4934879;29;20468;-68
2021/06/15 12:38:26;;;;;;;2.33;2.20;;;23.10;94.80;;;;;;4935896;29;20469;-68
2021/06/15 12:40:53;;;;;;;2.40;2.30;;;22.80;95.50;;;;;;4935387;29;20484;-68
2021/06/15 12:43:24;;;;;;;3.57;2.63;;;22.70;95.60;;;;;;4935318;29;20473;-68
2021/06/15 12:46:09;;;;;;;2.47;2.37;;;22.70;96.00;;;;;;4935254;28;20552;-68
2021/06/15 12:48:44;;;;;;;2.43;2.23;;;22.80;95.50;;;;;;4932961;29;20479;-68
2021/06/15 12:51:12;;;;;;;2.60;2.50;;;22.50;95.50;;;;;;4915610;29;20490;-67
2021/06/15 12:53:41;;;;;;;2.23;2.13;;;22.60;95.70;;;;;;4916425;29;20474;-68
2021/06/15 12:56:17;;;;;;;2.20;2.10;;;22.60;96.00;;;;;;4916751;29;20466;-68
2021/06/15 12:58:45;;;;;;;3.10;2.10;;;22.80;95.90;;;;;;4916659;29;20478;-67
2021/06/15 13:01:14;;;;;;;2.90;2.00;;;22.90;94.60;;;;;;4916178;29;20858;-68
2021/06/15 13:03:43;;;;;;;2.40;2.20;;;23.10;95.20;;;;;;4916241;29;20466;-68
2021/06/15 13:06:13;;;;;;;2.60;2.40;;;23.20;95.20;;;;;;4915298;29;20562;-69
2021/06/15 13:08:41;;;;;;;3.30;2.30;;;23.20;94.40;;;;;;4916147;29;20487;-68
2021/06/15 13:11:16;;;;;;;2.37;2.20;;;23.10;95.10;;;;;;4916011;29;20493;-68
2021/06/15 13:13:59;;;;;;;3.00;2.30;;;23.00;94.30;;;;;;4916151;29;20470;-68
2021/06/15 13:16:39;;;;;;;2.30;2.20;;;23.10;94.70;;;;;;4916414;29;20462;-69
2021/06/15 13:19:08;;;;;;;3.03;2.30;;;23.10;94.00;;;;;;4916393;29;20499;-66
2021/06/15 13:21:52;;;;;;;2.37;2.20;;;23.20;93.50;;;;;;4915239;29;20498;-67
2021/06/15 13:24:20;;;;;;;2.97;2.50;;;23.20;93.80;;;;;;4916744;29;20823;-67
2021/06/15 13:26:50;;;;;;;2.20;2.13;;;22.70;93.40;;;;;;4928999;29;20493;-68
2021/06/15 13:29:17;;;;;;;2.73;2.30;;;22.70;94.20;;;;;;4940024;29;21017;-67
2021/06/15 13:31:45;;;;;;;1.90;1.90;;;23.00;94.40;;;;;;4939186;28;20545;-67
2021/06/15 13:34:13;;;;;;;2.67;2.30;;;23.20;93.90;;;;;;4939631;29;20472;-68
2021/06/15 13:36:40;;;;;;;2.30;2.20;;;23.30;93.80;;;;;;4938466;29;20465;-68
2021/06/15 13:39:12;;;;;;;4.10;3.00;;;23.30;93.80;;;;;;4939048;29;20969;-68
2021/06/15 13:41:39;;;;;;;2.70;2.50;;;23.20;93.70;;;;;;4939532;28;20910;-67
2021/06/15 13:44:07;;;;;;;3.03;2.90;;;23.00;93.70;;;;;;4942884;29;20461;-67
2021/06/15 13:46:34;;;;;;;2.70;2.50;;;22.80;94.20;;;;;;4942391;29;20496;-67
2021/06/15 13:49:02;;;;;;;3.00;2.80;;;22.90;93.80;;;;;;4944855;29;20465;-67
2021/06/15 13:51:29;;;;;;;2.43;2.43;;;23.00;94.50;;;;;;4948218;29;20857;-67
2021/06/15 13:53:55;;;;;;;2.97;2.30;;;23.10;93.90;;;;;;4947395;29;20470;-67
2021/06/15 13:56:23;;;;;;;2.30;2.10;;;23.30;94.10;;;;;;4945701;29;20821;-67
2021/06/15 13:58:50;;;;;;;2.60;2.40;;;23.50;93.50;;;;;;4941338;29;20559;-67
2021/06/15 14:01:17;;;;;;;2.47;2.37;;;23.50;92.70;;;;;;4939815;29;20494;-67
2021/06/15 14:03:43;;;;;;;2.33;2.00;;;23.60;93.00;;;;;;4938843;29;20550;-67
2021/06/15 14:06:12;;;;;;;2.40;2.20;;;23.60;92.40;;;;;;4937502;29;20492;-67
2021/06/15 14:08:41;;;;;;;2.50;2.40;;;23.60;92.80;;;;;;4938005;28;20481;-67
2021/06/15 14:11:08;;;;;;;2.97;2.43;;;23.70;93.30;;;;;;4937755;29;20481;-67
2021/06/15 14:13:35;;;;;;;2.50;2.30;;;23.60;92.40;;;;;;4938115;29;20465;-68
2021/06/15 14:16:01;;;;;;;3.07;2.37;;;23.60;92.40;;;;;;4931214;29;20489;-68
2021/06/15 14:18:28;;;;;;;3.00;2.90;;;23.60;93.00;;;;;;4938281;29;20470;-68
2021/06/15 14:20:55;;;;;;;4.43;3.10;;;23.60;92.90;;;;;;4937021;28;20501;-68
2021/06/15 14:23:23;;;;;;;2.77;2.67;;;23.60;92.70;;;;;;4937774;29;20496;-68
2021/06/15 14:25:49;;;;;;;3.07;2.97;;;23.40;92.60;;;;;;4937731;29;20512;-68
2021/06/15 14:28:17;;;;;;;2.93;2.73;;;23.30;92.90;;;;;;4938133;29;20583;-67
2021/06/15 14:30:45;;;;;;;3.57;3.27;;;23.30;93.10;;;;;;4937445;29;20495;-67
2021/06/15 14:33:11;;;;;;;3.13;3.00;;;23.40;92.70;;;;;;4937610;29;20858;-67
2021/06/15 14:35:38;;;;;;;3.77;3.57;;;23.50;92.90;;;;;;4936339;28;20486;-67
2021/06/15 14:38:05;;;;;;;4.57;2.90;;;23.50;92.60;;;;;;4937618;29;20468;-68
2021/06/15 14:40:33;;;;;;;3.43;3.03;;;23.50;92.80;;;;;;4937472;29;20492;-68
2021/06/15 14:43:00;;;;;;;3.77;3.50;;;23.40;92.80;;;;;;4937345;29;20473;-68
2021/06/15 14:45:27;;;;;;;3.23;3.03;;;23.40;92.20;;;;;;4937005;28;20488;-68
2021/06/15 14:47:53;;;;;;;3.03;2.83;;;23.60;92.80;;;;;;4937341;29;20501;-68
2021/06/15 14:50:21;;;;;;;2.63;2.60;;;23.60;92.20;;;;;;4919416;29;20470;-68
2021/06/15 14:52:48;;;;;;;3.37;2.73;;;23.30;92.00;;;;;;4918270;29;20481;-68
2021/06/15 14:55:16;;;;;;;3.57;3.27;;;23.10;92.50;;;;;;4918510;29;20471;-68
2021/06/15 14:57:45;;;;;;;4.40;3.20;;;23.30;93.10;;;;;;4918310;29;20546;-69
2021/06/15 15:00:13;;;;;;;2.80;2.70;;;23.40;92.90;;;;;;4917942;29;20560;-69
2021/06/15 15:02:40;;;;;;;3.00;2.80;;;23.60;92.80;;;;;;4917829;29;20485;-68
2021/06/15 15:05:08;;;;;;;3.10;2.67;;;23.80;92.50;;;;;;4917077;29;20470;-69
2021/06/15 15:07:35;;;;;;;3.47;3.27;;;23.80;91.60;;;;;;4918034;29;20585;-68
2021/06/15 15:10:02;;;;;;;3.47;2.80;;;24.00;92.20;;;;;;4918527;29;20485;-69
2021/06/15 15:12:28;;;;;;;2.80;2.70;;;24.10;92.00;;;;;;4917729;29;20561;-68
2021/06/15 15:14:58;;;;;;;2.70;2.50;;;24.30;91.80;;;;;;4918098;29;20466;-68
2021/06/15 15:17:24;;;;;;;5.00;2.67;;;24.40;91.50;;;;;;4917591;29;20553;-68
2021/06/15 15:19:52;;;;;;;4.47;2.60;;;24.50;90.70;;;;;;4917824;29;20466;-68
2021/06/15 15:22:20;;;;;;;2.53;2.53;;;24.60;89.90;;;;;;4916514;29;20494;-68
2021/06/15 15:24:47;;;;;;;3.10;2.90;;;24.50;89.10;;;;;;4918293;29;20478;-68
2021/06/15 15:27:17;;;;;;;3.43;2.80;;;24.20;90.50;;;;;;4930900;29;20490;-67
2021/06/15 15:29:44;;;;;;;2.80;2.70;;;24.10;91.30;;;;;;4936680;29;20461;-67
2021/06/15 15:32:12;;;;;;;2.73;2.53;;;24.20;91.20;;;;;;4935735;29;20486;-67
2021/06/15 15:34:39;;;;;;;2.53;2.30;;;24.40;90.90;;;;;;4936714;29;20465;-67
2021/06/15 15:37:06;;;;;;;2.63;2.50;;;24.50;90.40;;;;;;4935341;29;20462;-67
2021/06/15 15:39:34;;;;;;;3.67;3.37;;;24.50;90.80;;;;;;4936461;29;20465;-67
2021/06/15 15:42:00;;;;;;;3.27;2.97;;;24.70;90.60;;;;;;4935918;29;20493;-67
2021/06/15 15:44:28;;;;;;;2.87;2.50;;;24.70;91.10;;;;;;4936024;29;20481;-67
2021/06/15 15:46:55;;;;;;;4.40;2.97;;;24.80;90.90;;;;;;4935544;29;20968;-67
2021/06/15 15:49:23;;;;;;;2.80;2.60;;;24.80;90.70;;;;;;4935972;29;20469;-67
2021/06/15 15:51:50;;;;;;;3.17;2.47;;;24.60;90.10;;;;;;4934931;29;20490;-67
2021/06/15 15:54:16;;;;;;;4.33;2.50;;;24.60;90.40;;;;;;4935666;29;20984;-67
2021/06/15 15:56:44;;;;;;;4.73;3.73;;;24.60;90.30;;;;;;4935622;28;20477;-67
2021/06/15 15:59:11;;;;;;;2.80;2.70;;;24.40;90.50;;;;;;4935911;29;20528;-67
2021/06/15 16:01:38;;;;;;;3.40;2.53;;;24.40;89.80;;;;;;4935524;29;20497;-68
2021/06/15 16:04:06;;;;;;;2.47;2.40;;;24.40;90.10;;;;;;4936221;29;20469;-68
2021/06/15 16:06:34;;;;;;;3.43;3.13;;;24.50;89.60;;;;;;4934948;28;20493;-69
2021/06/15 16:09:01;;;;;;;2.63;2.50;;;24.30;86.80;;;;;;4936066;29;20879;-68
2021/06/15 16:11:27;;;;;;;2.70;2.60;;;24.30;89.20;;;;;;4935477;29;20538;-68
2021/06/15 16:13:54;;;;;;;5.70;3.40;;;24.30;89.30;;;;;;4935605;29;21074;-68
2021/06/15 16:16:21;;;;;;;2.20;2.00;;;24.20;89.20;;;;;;4935261;29;20465;-68
2021/06/15 16:18:48;;;;;;;2.73;2.53;;;24.20;89.30;;;;;;4935712;29;20548;-68
2021/06/15 16:21:15;;;;;;;3.90;2.50;;;24.10;90.10;;;;;;4934676;29;20832;-67
2021/06/15 16:23:43;;;;;;;3.53;2.30;;;24.20;90.00;;;;;;4935588;29;20469;-67
2021/06/15 16:26:10;;;;;;;2.40;2.30;;;24.10;89.10;;;;;;4935334;29;20469;-67
2021/06/15 16:28:36;;;;;;;2.00;1.77;;;24.00;89.30;;;;;;4935675;29;20466;-68
2021/06/15 16:31:03;;;;;;;2.80;2.10;;;24.10;90.20;;;;;;4935030;28;20600;-68
2021/06/15 16:33:30;;;;;;;1.87;1.80;;;24.20;89.50;;;;;;4934907;29;20473;-68
2021/06/15 16:35:57;;;;;;;2.03;1.93;;;24.20;89.80;;;;;;4934186;29;20469;-67
2021/06/15 16:38:24;;;;;;;2.93;2.83;;;24.20;89.10;;;;;;4934989;29;20466;-68
2021/06/15 16:40:52;;;;;;;2.20;1.67;;;24.10;89.00;;;;;;4934632;29;20853;-68
2021/06/15 16:43:19;;;;;;;2.03;1.90;;;24.00;90.10;;;;;;4935228;29;20485;-68
2021/06/15 16:45:46;;;;;;;2.83;1.77;;;24.00;89.30;;;;;;4934851;29;20942;-68
2021/06/15 16:48:13;;;;;;;2.17;1.80;;;24.10;89.30;;;;;;4934926;29;20497;-68
2021/06/15 16:50:39;;;;;;;1.73;1.70;;;24.10;88.70;;;;;;4914892;29;20490;-68
2021/06/15 16:53:06;;;;;;;2.53;2.10;;;24.00;88.60;;;;;;4915509;29;20478;-68
2021/06/15 16:55:33;;;;;;;2.30;2.10;;;24.00;87.70;;;;;;4915726;29;20827;-68
2021/06/15 16:58:02;;;;;;;2.67;1.60;;;23.90;88.20;;;;;;4916053;29;20470;-68